createdAt,value
2019-02-20T00:01:26.577Z,100145.77
2019-02-20T00:03:53.544Z,100154.64
2019-02-20T00:06:20.566Z,100150.42
2019-02-20T00:08:47.532Z,100157.23
2019-02-20T00:11:14.429Z,100161.05
2019-02-20T00:13:41.302Z,100162.75
2019-02-20T00:16:08.516Z,100168.25
2019-02-20T00:18:35.465Z,100163.16
2019-02-20T00:21:02.357Z,100167.42
2019-02-20T00:23:30.490Z,100167.83
2019-02-20T00:25:57.456Z,100166.98
2019-02-20T00:28:24.415Z,100171.64
2019-02-20T00:30:51.385Z,100175.47
2019-02-20T00:33:18.584Z,100172.92
2019-02-20T00:35:45.830Z,100177.98
2019-02-20T00:38:13.188Z,100176.72
2019-02-20T00:40:40.091Z,100178.02
2019-02-20T00:43:07.105Z,100185.61
2019-02-20T00:45:34.022Z,100130.77
2019-02-20T00:48:01.285Z,100180.55
2019-02-20T00:50:28.269Z,100184.41
2019-02-20T00:52:55.568Z,100183.98
2019-02-20T00:55:22.514Z,100186.57
2019-02-20T00:57:49.666Z,100180.62
2019-02-20T01:00:16.914Z,100186.55
2019-02-20T01:02:43.796Z,100182.74
2019-02-20T01:05:10.736Z,100189.09
2019-02-20T01:07:37.704Z,100184.86
2019-02-20T01:10:05.012Z,100190.37
2019-02-20T01:12:31.916Z,100190.00
2019-02-20T01:14:59.214Z,100187.02
2019-02-20T01:17:26.177Z,100183.64
2019-02-20T01:19:53.470Z,100187.03
2019-02-20T01:22:20.654Z,100183.23
2019-02-20T01:24:47.904Z,100176.47
2019-02-20T01:27:15.077Z,100170.14
2019-02-20T01:29:42.036Z,100168.88
2019-02-20T01:32:08.925Z,100166.75
2019-02-20T01:34:36.222Z,100167.62
2019-02-20T01:37:03.450Z,100161.27
2019-02-20T01:39:30.359Z,100170.62
2019-02-20T01:41:57.317Z,100163.01
2019-02-20T01:44:25.538Z,100160.93
2019-02-20T01:46:52.433Z,100165.17
2019-02-20T01:49:19.621Z,100156.27
2019-02-20T01:51:46.533Z,100165.57
2019-02-20T01:54:13.449Z,100157.95
2019-02-20T01:56:40.794Z,100158.83
2019-02-20T01:59:07.750Z,100157.15
2019-02-20T02:01:35.789Z,100158.89
2019-02-20T02:04:02.660Z,100161.45
2019-02-20T02:06:30.717Z,100164.41
2019-02-20T02:08:59.585Z,100157.66
2019-02-20T02:11:26.266Z,100158.91
2019-02-20T02:13:53.478Z,100163.53
2019-02-20T02:16:20.734Z,100158.45
2019-02-20T02:18:48.090Z,100160.57
2019-02-20T02:21:15.344Z,100152.11
2019-02-20T02:23:42.225Z,100150.03
2019-02-20T02:26:11.125Z,100156.36
2019-02-20T02:28:38.199Z,100160.59
2019-02-20T02:31:05.439Z,100160.19
2019-02-20T02:33:32.398Z,100168.65
2019-02-20T02:35:59.389Z,100165.72
2019-02-20T02:38:26.361Z,100167.41
2019-02-20T02:40:53.668Z,100163.63
2019-02-20T02:43:20.561Z,100161.12
2019-02-20T02:45:47.780Z,100172.54
2019-02-20T02:48:15.033Z,100175.48
2019-02-20T02:50:42.006Z,100175.06
2019-02-20T02:53:08.934Z,100182.23
2019-02-20T02:55:35.957Z,100177.62
2019-02-20T02:58:02.857Z,100183.52
2019-02-20T03:00:30.165Z,100178.89
2019-02-20T03:02:57.242Z,100183.13
2019-02-20T03:05:24.175Z,100178.45
2019-02-20T03:07:51.150Z,100171.68
2019-02-20T03:10:18.050Z,100176.75
2019-02-20T03:12:45.332Z,100174.20
2019-02-20T03:15:12.565Z,100172.52
2019-02-20T03:17:39.475Z,100178.02
2019-02-20T03:20:06.851Z,100187.34
2019-02-20T03:22:33.834Z,100189.90
2019-02-20T03:25:00.804Z,100185.23
2019-02-20T03:27:27.789Z,100186.50
2019-02-20T03:29:55.657Z,100191.16
2019-02-20T03:32:22.547Z,100191.16
2019-02-20T03:34:49.406Z,100195.37
2019-02-20T03:37:16.764Z,100197.08
2019-02-20T03:39:43.770Z,100201.72
2019-02-20T03:42:10.710Z,100194.97
2019-02-20T03:44:37.702Z,100203.01
2019-02-20T03:47:04.990Z,100208.08
2019-02-20T03:49:32.155Z,100207.25
2019-02-20T03:51:59.137Z,100208.93
2019-02-20T03:54:26.102Z,100215.70
2019-02-20T03:56:53.089Z,100216.57
2019-02-20T03:59:20.037Z,100214.88
2019-02-20T04:01:46.910Z,100208.54
2019-02-20T04:04:13.863Z,100208.12
2019-02-20T04:06:41.096Z,100202.20
2019-02-20T04:09:08.064Z,100210.24
2019-02-20T04:11:35.374Z,100206.44
2019-02-20T04:14:02.623Z,100213.22
2019-02-20T04:16:29.506Z,100218.70
2019-02-20T04:18:56.836Z,100215.34
2019-02-20T04:21:24.077Z,100209.81
2019-02-20T04:24:01.584Z,100214.89
2019-02-20T04:26:19.525Z,100210.27
2019-02-20T04:28:46.528Z,100208.14
2019-02-20T04:31:13.946Z,100214.89
2019-02-20T04:33:40.907Z,100211.95
2019-02-20T04:36:07.942Z,100214.88
2019-02-20T04:38:35.006Z,100212.80
2019-02-20T04:41:01.885Z,100211.95
2019-02-20T04:43:28.828Z,100209.39
2019-02-20T04:45:56.203Z,100211.48
2019-02-20T04:48:23.163Z,100211.07
2019-02-20T04:50:50.047Z,100211.48
2019-02-20T04:53:18.930Z,100208.53
2019-02-20T04:55:46.178Z,100206.86
2019-02-20T04:58:13.154Z,100216.16
2019-02-20T05:00:40.137Z,100214.91
2019-02-20T05:03:07.376Z,100221.26
2019-02-20T05:05:34.252Z,100218.70
2019-02-20T05:08:01.238Z,100222.50
2019-02-20T05:10:28.211Z,100221.23
2019-02-20T05:12:55.228Z,100230.55
2019-02-20T05:15:22.190Z,100220.82
2019-02-20T05:17:49.566Z,100222.53
2019-02-20T05:20:16.444Z,100225.03
2019-02-20T05:22:43.411Z,100222.94
2019-02-20T05:25:10.380Z,100219.98
2019-02-20T05:27:37.336Z,100214.47
2019-02-20T05:30:04.346Z,100215.74
2019-02-20T05:32:32.083Z,100226.75
2019-02-20T05:34:59.036Z,100225.05
2019-02-20T05:37:25.986Z,100220.38
2019-02-20T05:39:52.979Z,100224.19
2019-02-20T05:42:20.260Z,100224.62
2019-02-20T05:44:47.234Z,100219.09
2019-02-20T05:47:14.571Z,100228.43
2019-02-20T05:49:41.567Z,100219.14
2019-02-20T05:52:08.504Z,100224.19
2019-02-20T05:54:35.481Z,100233.50
2019-02-20T05:57:02.406Z,100195.04
2019-02-20T05:59:29.691Z,100236.44
2019-02-20T06:01:56.573Z,100244.48
2019-02-20T06:04:23.547Z,100250.41
2019-02-20T06:06:50.844Z,100248.27
2019-02-20T06:09:18.100Z,100244.46
2019-02-20T06:11:45.204Z,100248.67
2019-02-20T06:14:14.497Z,100257.56
2019-02-20T06:16:41.801Z,100270.69
2019-02-20T06:19:08.917Z,100265.59
2019-02-20T06:21:35.886Z,100271.94
2019-02-20T06:24:02.824Z,100274.06
2019-02-20T06:26:30.094Z,100279.97
2019-02-20T06:28:57.083Z,100281.68
2019-02-20T06:31:24.089Z,100290.98
2019-02-20T06:33:51.342Z,100293.94
2019-02-20T06:36:18.710Z,100299.00
2019-02-20T06:38:45.580Z,100297.31
2019-02-20T06:41:12.470Z,100301.52
2019-02-20T06:43:39.412Z,100311.27
2019-02-20T06:46:06.575Z,100309.59
2019-02-20T06:48:33.535Z,100320.56
2019-02-20T06:51:00.765Z,100313.80
2019-02-20T06:53:28.021Z,100315.92
2019-02-20T06:55:54.993Z,100311.25
2019-02-20T06:58:21.944Z,100315.50
2019-02-20T07:00:49.162Z,100319.30
2019-02-20T07:03:16.036Z,100325.64
2019-02-20T07:05:42.930Z,100332.39
2019-02-20T07:08:10.241Z,100332.83
2019-02-20T07:10:37.225Z,100330.69
2019-02-20T07:13:04.200Z,100334.49
2019-02-20T07:15:31.090Z,100332.36
2019-02-20T07:17:57.965Z,100334.07
2019-02-20T07:20:24.927Z,100335.75
2019-02-20T07:22:52.202Z,100349.30
2019-02-20T07:25:19.071Z,100347.62
2019-02-20T07:27:46.282Z,100345.48
2019-02-20T07:30:13.177Z,100354.38
2019-02-20T07:32:40.507Z,100363.27
2019-02-20T07:35:07.427Z,100369.61
2019-02-20T07:37:34.384Z,100371.73
2019-02-20T07:40:01.329Z,100365.80
2019-02-20T07:42:29.916Z,100372.14
2019-02-20T07:44:56.887Z,100374.66
2019-02-20T07:47:24.216Z,100372.97
2019-02-20T07:49:51.466Z,100379.73
2019-02-20T07:52:18.728Z,100381.44
2019-02-20T07:54:45.672Z,100388.19
2019-02-20T07:57:12.911Z,100392.86
2019-02-20T07:59:39.866Z,100391.16
2019-02-20T08:02:07.124Z,100394.97
2019-02-20T08:04:34.067Z,100403.85
2019-02-20T08:07:01.302Z,100400.45
2019-02-20T08:09:28.182Z,100399.17
2019-02-20T08:11:55.074Z,100402.55
2019-02-20T08:14:21.960Z,100410.16
2019-02-20T08:16:52.232Z,100410.56
2019-02-20T08:19:17.773Z,100407.20
2019-02-20T08:21:48.169Z,100406.75
2019-02-20T08:24:18.333Z,100416.91
2019-02-20T08:26:45.578Z,100415.23
2019-02-20T08:29:12.832Z,100413.55
2019-02-20T08:31:39.977Z,100415.67
2019-02-20T08:34:06.867Z,100413.54
2019-02-20T08:36:34.184Z,100414.80
2019-02-20T08:39:01.331Z,100417.75
2019-02-20T08:41:29.883Z,100419.47
2019-02-20T08:43:56.823Z,100410.98
2019-02-20T08:46:24.117Z,100419.45
2019-02-20T08:48:51.424Z,100419.44
2019-02-20T08:51:18.389Z,100424.94
2019-02-20T08:53:45.333Z,100438.08
2019-02-20T08:56:12.197Z,100451.24
2019-02-20T08:58:39.453Z,100449.95
2019-02-20T09:01:06.613Z,100455.48
2019-02-20T09:03:33.515Z,100455.46
2019-02-20T09:06:00.466Z,100454.18
2019-02-20T09:08:27.636Z,100464.77
2019-02-20T09:10:54.518Z,100466.89
2019-02-20T09:13:21.877Z,100466.05
2019-02-20T09:15:49.199Z,100465.18
2019-02-20T09:18:16.080Z,100471.11
2019-02-20T09:20:43.291Z,100470.25
2019-02-20T09:23:10.604Z,100470.70
2019-02-20T09:25:41.510Z,100471.12
2019-02-20T09:28:06.425Z,100464.35
2019-02-20T09:30:33.332Z,100470.25
2019-02-20T09:33:00.294Z,100468.55
2019-02-20T09:35:27.522Z,100470.66
2019-02-20T09:37:58.832Z,100469.80
2019-02-20T09:40:24.868Z,100471.05
2019-02-20T09:42:51.891Z,100468.09
2019-02-20T09:45:18.837Z,100475.29
2019-02-20T09:47:46.967Z,100480.74
2019-02-20T09:50:13.832Z,100482.02
2019-02-20T09:52:41.952Z,100481.13
2019-02-20T09:55:09.249Z,100478.98
2019-02-20T09:57:36.201Z,100479.38
2019-02-20T10:00:03.433Z,100473.84
2019-02-20T10:02:32.249Z,100471.30
2019-02-20T10:04:59.282Z,100469.61
2019-02-20T10:07:26.541Z,100480.17
2019-02-20T10:09:54.921Z,100472.52
2019-02-20T10:12:23.299Z,100476.33
2019-02-20T10:14:50.239Z,100471.64
2019-02-20T10:17:17.176Z,100476.28
2019-02-20T10:19:45.007Z,100472.46
2019-02-20T10:22:12.742Z,100476.25
2019-02-20T10:24:39.839Z,100469.01
2019-02-20T10:27:06.713Z,100471.55
2019-02-20T10:29:33.742Z,100476.19
2019-02-20T10:32:01.119Z,100468.55
2019-02-20T10:34:28.099Z,100467.30
2019-02-20T10:36:55.316Z,100472.34
2019-02-20T10:39:22.562Z,100471.08
2019-02-20T10:41:49.546Z,100476.62
2019-02-20T10:44:16.888Z,100467.28
2019-02-20T10:46:43.850Z,100466.51
2019-02-20T10:49:10.819Z,100465.66
2019-02-20T10:51:38.740Z,100468.20
2019-02-20T10:54:05.881Z,100469.89
2019-02-20T10:56:32.795Z,100467.78
2019-02-20T10:59:00.489Z,100460.56
2019-02-20T11:01:27.831Z,100456.26
2019-02-20T11:03:54.698Z,100465.17
2019-02-20T11:06:21.569Z,100464.31
2019-02-20T11:08:50.396Z,100463.45
2019-02-20T11:11:17.168Z,100472.33
2019-02-20T11:13:44.518Z,100474.89
2019-02-20T11:16:11.464Z,100474.09
2019-02-20T11:18:38.375Z,100472.43
2019-02-20T11:21:05.332Z,100476.23
2019-02-20T11:23:32.308Z,100472.36
2019-02-20T11:25:59.656Z,100484.18
2019-02-20T11:28:27.196Z,100480.28
2019-02-20T11:30:56.889Z,100478.13
2019-02-20T11:33:24.173Z,100476.84
2019-02-20T11:35:51.430Z,100468.02
2019-02-20T11:38:18.688Z,100465.84
2019-02-20T11:40:45.930Z,100465.33
2019-02-20T11:43:12.834Z,100470.34
2019-02-20T11:45:40.125Z,100472.48
2019-02-20T11:48:07.001Z,100466.94
2019-02-20T11:50:33.889Z,100457.58
2019-02-20T11:53:01.185Z,100460.14
2019-02-20T11:55:28.413Z,100448.33
2019-02-20T11:58:00.653Z,100453.41
2019-02-20T12:00:24.160Z,100451.67
2019-02-20T12:02:51.417Z,100453.00
2019-02-20T12:05:18.380Z,100456.39
2019-02-20T12:07:45.307Z,100461.54
2019-02-20T12:10:12.859Z,100456.84
2019-02-20T12:12:39.975Z,100452.16
2019-02-20T12:15:07.310Z,100453.44
2019-02-20T12:17:34.283Z,100457.23
2019-02-20T12:20:01.247Z,100464.81
2019-02-20T12:22:29.651Z,100464.36
2019-02-20T12:24:56.545Z,100464.73
2019-02-20T12:27:23.738Z,100460.55
2019-02-20T12:29:51.049Z,100462.70
2019-02-20T12:32:17.984Z,100464.81
2019-02-20T12:34:46.442Z,100463.53
2019-02-20T12:37:13.502Z,100464.88
2019-02-20T12:39:40.723Z,100466.62
2019-02-20T12:42:08.091Z,100463.30
2019-02-20T12:44:35.069Z,100462.81
2019-02-20T12:47:02.020Z,100459.86
2019-02-20T12:49:28.906Z,100460.67
2019-02-20T12:51:55.838Z,100459.28
2019-02-20T12:54:23.126Z,100463.77
2019-02-20T12:56:50.103Z,100459.76
2019-02-20T12:59:17.602Z,100459.58
2019-02-20T13:01:44.742Z,100448.85
2019-02-20T13:04:11.905Z,100455.88
2019-02-20T13:06:38.776Z,100454.44
2019-02-20T13:09:06.021Z,100453.53
2019-02-20T13:11:33.593Z,100456.11
2019-02-20T13:14:00.533Z,100457.37
2019-02-20T13:16:27.430Z,100464.58
2019-02-20T13:18:54.717Z,100459.89
2019-02-20T13:21:22.760Z,100461.13
2019-02-20T13:23:50.039Z,100453.02
2019-02-20T13:26:17.010Z,100450.46
2019-02-20T13:28:43.950Z,100454.67
2019-02-20T13:31:11.184Z,100449.53
2019-02-20T13:33:38.061Z,100448.66
2019-02-20T13:36:05.265Z,100460.06
2019-02-20T13:38:32.466Z,100460.80
2019-02-20T13:40:59.449Z,100459.55
2019-02-20T13:43:26.728Z,100462.05
2019-02-20T13:45:53.721Z,100461.95
2019-02-20T13:48:20.656Z,100464.40
2019-02-20T13:50:48.575Z,100466.91
2019-02-20T13:53:15.546Z,100466.86
2019-02-20T13:55:42.516Z,100469.79
2019-02-20T13:58:11.584Z,100465.08
2019-02-20T14:00:38.309Z,100466.83
2019-02-20T14:03:06.194Z,100470.19
2019-02-20T14:05:33.421Z,100468.89
2019-02-20T14:08:00.686Z,100475.68
2019-02-20T14:10:28.972Z,100480.23
2019-02-20T14:12:55.916Z,100476.80
2019-02-20T14:15:22.870Z,100479.36
2019-02-20T14:17:49.860Z,100474.58
2019-02-20T14:20:16.928Z,100476.59
2019-02-20T14:22:43.953Z,100478.25
2019-02-20T14:25:11.269Z,100479.93
2019-02-20T14:27:38.228Z,100478.25
2019-02-20T14:30:05.452Z,100483.81
2019-02-20T14:32:33.637Z,100482.94
2019-02-20T14:35:01.686Z,100482.06
2019-02-20T14:37:30.298Z,100476.53
2019-02-20T14:39:57.551Z,100477.83
2019-02-20T14:42:24.777Z,100475.75
2019-02-20T14:44:51.724Z,100471.44
2019-02-20T14:47:19.013Z,100469.70
2019-02-20T14:49:46.244Z,100465.53
2019-02-20T14:52:13.218Z,100466.19
2019-02-20T14:54:40.168Z,100470.34
2019-02-20T14:57:07.134Z,100467.78
2019-02-20T14:59:34.678Z,100469.34
2019-02-20T15:02:01.647Z,100470.02
2019-02-20T15:04:28.596Z,100466.48
2019-02-20T15:06:55.569Z,100468.45
2019-02-20T15:09:22.516Z,100468.01
2019-02-20T15:11:49.501Z,100468.32
2019-02-20T15:14:16.465Z,100477.23
2019-02-20T15:16:43.437Z,100475.97
2019-02-20T15:19:10.392Z,100472.95
2019-02-20T15:21:37.407Z,100473.87
2019-02-20T15:24:04.582Z,100483.28
2019-02-20T15:26:31.523Z,100485.41
2019-02-20T15:28:58.513Z,100477.37
2019-02-20T15:31:33.413Z,100483.73
2019-02-20T15:33:54.452Z,100489.65
2019-02-20T15:36:22.087Z,100488.00
2019-02-20T15:38:49.032Z,100488.48
2019-02-20T15:41:16.285Z,100488.98
2019-02-20T15:43:43.185Z,100500.14
2019-02-20T15:46:10.496Z,100496.48
2019-02-20T15:48:37.488Z,100496.11
2019-02-20T15:51:04.454Z,100505.50
2019-02-20T15:53:31.735Z,100509.50
2019-02-20T15:55:59.006Z,100503.70
2019-02-20T15:58:27.304Z,100507.22
2019-02-20T16:00:54.341Z,100511.59
2019-02-20T16:03:21.680Z,100509.56
2019-02-20T16:05:48.631Z,100513.88
2019-02-20T16:08:15.875Z,100513.06
2019-02-20T16:10:42.850Z,100516.52
2019-02-20T16:13:09.814Z,100511.87
2019-02-20T16:15:37.157Z,100517.03
2019-02-20T16:18:04.493Z,100519.24
2019-02-20T16:20:31.444Z,100521.48
2019-02-20T16:22:58.388Z,100522.80
2019-02-20T16:25:25.727Z,100518.98
2019-02-20T16:27:52.989Z,100520.73
2019-02-20T16:30:20.236Z,100519.92
2019-02-20T16:32:47.478Z,100529.70
2019-02-20T16:35:14.757Z,100530.98
2019-02-20T16:37:41.726Z,100532.78
2019-02-20T16:40:09.045Z,100532.37
2019-02-20T16:42:36.311Z,100531.19
2019-02-20T16:45:03.265Z,100534.65
2019-02-20T16:47:31.617Z,100535.98
2019-02-20T16:49:58.977Z,100534.31
2019-02-20T16:52:26.276Z,100534.77
2019-02-20T16:54:55.014Z,100536.48
2019-02-20T16:57:22.469Z,100537.36
2019-02-20T16:59:49.817Z,100537.01
2019-02-20T17:02:17.076Z,100541.72
2019-02-20T17:04:44.339Z,100546.86
2019-02-20T17:07:11.357Z,100550.29
2019-02-20T17:09:38.304Z,100554.54
2019-02-20T17:12:05.599Z,100549.45
2019-02-20T17:14:32.838Z,100548.19
2019-02-20T17:17:00.092Z,100554.94
2019-02-20T17:19:27.055Z,100558.34
2019-02-20T17:21:54.019Z,100557.12
2019-02-20T17:24:20.957Z,100559.23
2019-02-20T17:26:48.937Z,100553.32
2019-02-20T17:29:16.423Z,100556.31
2019-02-20T17:31:43.387Z,100555.09
2019-02-20T17:34:10.362Z,100558.90
2019-02-20T17:36:37.691Z,100561.08
2019-02-20T17:39:07.186Z,100565.34
2019-02-20T17:41:35.910Z,100569.58
2019-02-20T17:44:02.973Z,100564.95
2019-02-20T17:46:31.251Z,100563.28
2019-02-20T17:48:58.269Z,100576.42
2019-02-20T17:51:25.219Z,100578.95
2019-02-20T17:53:52.290Z,100593.80
2019-02-20T17:56:19.270Z,100591.28
2019-02-20T17:58:46.244Z,100595.52
2019-02-20T18:01:13.215Z,100594.67
2019-02-20T18:03:40.442Z,100600.63
2019-02-20T18:06:07.355Z,100600.22
2019-02-20T18:08:34.646Z,100599.83
2019-02-20T18:11:01.979Z,100603.21
2019-02-20T18:13:29.260Z,100600.67
2019-02-20T18:15:56.504Z,100602.81
2019-02-20T18:18:23.394Z,100610.03
2019-02-20T18:20:50.309Z,100607.90
2019-02-20T18:23:17.821Z,100603.23
2019-02-20T18:25:45.151Z,100599.84
2019-02-20T18:28:12.322Z,100599.84
2019-02-20T18:30:39.625Z,100603.26
2019-02-20T18:33:06.516Z,100604.09
2019-02-20T18:35:33.825Z,100606.66
2019-02-20T18:38:00.806Z,100601.18
2019-02-20T18:40:27.833Z,100600.73
2019-02-20T18:42:54.817Z,100601.59
2019-02-20T18:45:22.034Z,100607.54
2019-02-20T18:47:49.264Z,100610.08
2019-02-20T18:50:16.243Z,100609.22
2019-02-20T18:52:43.197Z,100617.70
2019-02-20T18:55:11.156Z,100614.72
2019-02-20T18:57:38.130Z,100617.69
2019-02-20T19:00:06.391Z,100620.69
2019-02-20T19:02:34.992Z,100618.55
2019-02-20T19:05:02.300Z,100618.56
2019-02-20T19:07:30.779Z,100620.22
2019-02-20T19:09:57.760Z,100620.63
2019-02-20T19:12:24.738Z,100624.02
2019-02-20T19:14:51.767Z,100628.73
2019-02-20T19:19:59.475Z,100634.64
2019-02-20T19:22:26.446Z,100630.39
2019-02-20T19:24:54.461Z,100626.13
2019-02-20T19:27:21.477Z,100627.84
2019-02-20T19:29:48.765Z,100634.61
2019-02-20T19:32:16.801Z,100635.03
2019-02-20T19:34:43.704Z,100634.61
2019-02-20T19:37:11.051Z,100636.74
2019-02-20T19:39:38.367Z,100638.02
2019-02-20T19:42:05.252Z,100639.70
2019-02-20T19:44:32.589Z,100640.56
2019-02-20T19:46:59.550Z,100644.78
2019-02-20T19:49:26.485Z,100641.38
2019-02-20T19:51:53.846Z,100643.51
2019-02-20T19:54:20.897Z,100643.92
2019-02-20T19:56:47.919Z,100645.64
2019-02-20T19:59:15.009Z,100639.25
2019-02-20T20:01:44.561Z,100643.92
2019-02-20T20:04:10.517Z,100649.86
2019-02-20T20:06:37.540Z,100641.82
2019-02-20T20:09:04.619Z,100643.11
2019-02-20T20:11:44.235Z,100643.95
2019-02-20T20:14:03.249Z,100649.47
2019-02-20T20:16:30.642Z,100647.78
2019-02-20T20:18:57.982Z,100649.45
2019-02-20T20:21:25.250Z,100654.13
2019-02-20T20:23:52.279Z,100653.27
2019-02-20T20:26:19.199Z,100655.80
2019-02-20T20:28:46.075Z,100658.33
2019-02-20T20:31:12.977Z,100654.95
2019-02-20T20:33:39.987Z,100655.79
2019-02-20T20:36:07.237Z,100655.78
2019-02-20T20:38:34.648Z,100654.94
2019-02-20T20:41:01.676Z,100659.16
2019-02-20T20:43:28.563Z,100657.91
2019-02-20T20:45:55.514Z,100655.78
2019-02-20T20:48:22.548Z,100651.55
2019-02-20T20:50:49.506Z,100651.08
2019-02-20T20:53:16.491Z,100645.99
2019-02-20T20:55:45.789Z,100650.24
2019-02-20T20:58:12.697Z,100645.55
2019-02-20T21:00:39.679Z,100645.53
2019-02-20T21:03:07.015Z,100644.70
2019-02-20T21:05:34.222Z,100641.73
2019-02-20T21:08:01.204Z,100643.00
2019-02-20T21:10:28.726Z,100647.63
2019-02-20T21:12:58.043Z,100649.34
2019-02-20T21:15:25.342Z,100648.49
2019-02-20T21:17:52.787Z,100645.55
2019-02-20T21:20:20.158Z,100641.73
2019-02-20T21:22:47.335Z,100640.04
2019-02-20T21:25:14.567Z,100638.77
2019-02-20T21:27:41.813Z,100642.99
2019-02-20T21:30:09.177Z,100637.91
2019-02-20T21:32:36.200Z,100638.33
2019-02-20T21:35:03.554Z,100644.28
2019-02-20T21:37:30.527Z,100649.78
2019-02-20T21:39:58.172Z,100640.45
2019-02-20T21:42:25.158Z,100644.67
2019-02-20T21:44:52.092Z,100644.66
2019-02-20T21:47:19.322Z,100651.88
2019-02-20T21:49:46.297Z,100644.27
2019-02-20T21:52:13.653Z,100649.78
2019-02-20T21:54:40.933Z,100649.78
2019-02-20T21:57:08.318Z,100648.92
2019-02-20T21:59:39.230Z,100641.30
2019-02-20T22:02:03.893Z,100642.16
2019-02-20T22:04:31.265Z,100645.55
2019-02-20T22:07:00.269Z,100648.97
2019-02-20T22:09:27.537Z,100651.92
2019-02-20T22:11:54.449Z,100652.79
2019-02-20T22:14:22.382Z,100653.22
2019-02-20T22:16:49.297Z,100649.00
2019-02-20T22:19:16.204Z,100658.73
2019-02-20T22:21:43.526Z,100654.91
2019-02-20T22:24:10.482Z,100656.63
2019-02-20T22:26:37.542Z,100654.50
2019-02-20T22:29:04.742Z,100651.54
2019-02-20T22:31:32.125Z,100653.64
2019-02-20T22:33:59.060Z,100653.24
2019-02-20T22:36:28.899Z,100659.16
2019-02-20T22:38:55.854Z,100664.25
2019-02-20T22:41:24.206Z,100660.45
2019-02-20T22:43:52.311Z,100654.92
2019-02-20T22:46:19.573Z,100651.55
2019-02-20T22:48:46.498Z,100656.63
2019-02-20T22:51:13.390Z,100649.83
2019-02-20T22:53:40.498Z,100654.09
2019-02-20T22:56:07.432Z,100655.36
2019-02-20T22:58:34.417Z,100654.09
2019-02-20T23:01:06.302Z,100655.35
2019-02-20T23:03:33.814Z,100651.11
2019-02-20T23:06:00.808Z,100645.61
2019-02-20T23:08:27.700Z,100651.55
2019-02-20T23:10:55.177Z,100652.38
2019-02-20T23:13:22.093Z,100656.64
2019-02-20T23:15:49.115Z,100655.37
2019-02-20T23:18:16.051Z,100650.70
2019-02-20T23:20:42.931Z,100655.79
2019-02-20T23:23:09.923Z,100657.48
2019-02-20T23:25:37.173Z,100659.61
2019-02-20T23:28:04.251Z,100660.02
2019-02-20T23:30:31.149Z,100660.02
2019-02-20T23:33:00.687Z,100667.66
2019-02-20T23:35:27.004Z,100665.13
2019-02-20T23:37:53.917Z,100665.98
2019-02-20T23:40:21.154Z,100669.80
2019-02-20T23:42:49.242Z,100670.22
2019-02-20T23:45:16.309Z,100674.04
2019-02-20T23:47:43.293Z,100674.45
2019-02-20T23:50:10.287Z,100675.73
2019-02-20T23:52:37.250Z,100670.22
2019-02-20T23:55:04.250Z,100679.12
2019-02-20T23:57:31.603Z,100680.41
2019-02-20T23:59:58.975Z,100681.68
